createdAt,value
2022-11-22T00:00:11.745Z,9.661478
2022-11-22T00:01:11.764Z,9.661378
2022-11-22T00:02:11.779Z,9.661490
2022-11-22T00:03:11.763Z,9.661575
2022-11-22T00:04:11.708Z,9.661053
2022-11-22T00:05:11.767Z,9.661570
2022-11-22T00:06:11.771Z,9.661286
2022-11-22T00:07:11.742Z,9.661504
2022-11-22T00:08:11.681Z,9.661873
2022-11-22T00:09:12.254Z,9.661926
2022-11-22T00:10:11.721Z,9.660929
2022-11-22T00:11:11.684Z,9.661266
2022-11-22T00:12:11.695Z,9.661485
2022-11-22T00:13:11.669Z,9.661411
2022-11-22T00:14:11.673Z,9.661308
2022-11-22T00:15:11.683Z,9.661274
2022-11-22T00:16:11.652Z,9.661395
2022-11-22T00:17:11.662Z,9.661314
2022-11-22T00:18:11.649Z,9.661223
2022-11-22T00:19:11.631Z,9.661403
2022-11-22T00:20:11.628Z,9.661468
2022-11-22T00:21:11.654Z,9.661589
2022-11-22T00:22:11.647Z,9.660911
2022-11-22T00:23:11.626Z,9.661065
2022-11-22T00:24:12.164Z,9.661158
2022-11-22T00:25:11.609Z,9.661619
2022-11-22T00:26:11.614Z,9.661384
2022-11-22T00:27:11.598Z,9.661586
2022-11-22T00:28:11.647Z,9.661707
2022-11-22T00:29:11.554Z,9.662292
2022-11-22T00:30:11.617Z,9.661690
2022-11-22T00:31:11.631Z,9.661559
2022-11-22T00:32:11.571Z,9.661388
2022-11-22T00:33:11.603Z,9.661233
2022-11-22T00:34:11.560Z,9.661107
2022-11-22T00:35:11.594Z,9.661337
2022-11-22T00:36:11.768Z,9.661479
2022-11-22T00:37:11.757Z,9.661395
2022-11-22T00:38:11.554Z,9.661432
2022-11-22T00:39:11.531Z,9.661787
2022-11-22T00:40:11.518Z,9.661655
2022-11-22T00:41:11.560Z,9.661715
2022-11-22T00:42:11.572Z,9.661763
2022-11-22T00:43:11.560Z,9.661586
2022-11-22T00:44:11.549Z,9.661468
2022-11-22T00:45:11.474Z,9.661151
2022-11-22T00:46:11.608Z,9.661503
2022-11-22T00:47:11.592Z,9.661502
2022-11-22T00:48:11.554Z,9.661482
2022-11-22T00:49:11.473Z,9.661444
2022-11-22T00:50:11.497Z,9.661510
2022-11-22T00:51:11.497Z,9.661503
2022-11-22T00:52:11.496Z,9.661489
2022-11-22T00:53:11.569Z,9.661377
2022-11-22T00:54:11.461Z,9.661523
2022-11-22T00:55:11.450Z,9.661421
2022-11-22T00:56:11.447Z,9.661358
2022-11-22T00:57:12.478Z,9.661510
2022-11-22T00:58:11.549Z,9.661409
2022-11-22T00:59:11.440Z,9.661468
2022-11-22T01:00:11.439Z,9.661493
2022-11-22T01:01:11.493Z,9.661457
2022-11-22T01:02:11.447Z,9.661589
2022-11-22T01:03:12.543Z,9.661651
2022-11-22T01:04:11.425Z,9.661431
2022-11-22T01:05:11.388Z,9.661411
2022-11-22T01:06:11.362Z,9.661266
2022-11-22T01:07:11.429Z,9.661222
2022-11-22T01:08:11.392Z,9.661308
2022-11-22T01:09:11.391Z,9.661304
2022-11-22T01:10:11.397Z,9.661396
2022-11-22T01:11:11.397Z,9.661543
2022-11-22T01:12:11.391Z,9.661419
2022-11-22T01:13:11.375Z,9.661232
2022-11-22T01:14:11.378Z,9.661169
2022-11-22T01:15:11.313Z,9.661375
2022-11-22T01:16:11.379Z,9.661536
2022-11-22T01:17:11.334Z,9.661674
2022-11-22T01:18:11.355Z,9.661613
2022-11-22T01:19:11.318Z,9.661829
2022-11-22T01:20:11.338Z,9.661663
2022-11-22T01:21:11.283Z,9.661369
2022-11-22T01:22:11.292Z,9.661324
2022-11-22T01:23:11.325Z,9.661443
2022-11-22T01:24:11.296Z,9.661524
2022-11-22T01:25:11.314Z,9.661579
2022-11-22T01:26:11.289Z,9.661394
2022-11-22T01:27:11.370Z,9.661393
2022-11-22T01:28:11.285Z,9.661583
2022-11-22T01:29:11.287Z,9.661956
2022-11-22T01:30:11.247Z,9.661681
2022-11-22T01:31:11.364Z,9.661661
2022-11-22T01:32:11.280Z,9.661667
2022-11-22T01:33:11.292Z,9.661478
2022-11-22T01:34:11.247Z,9.661533
2022-11-22T01:35:11.256Z,9.661219
2022-11-22T01:36:11.327Z,9.661405
2022-11-22T01:37:11.230Z,9.661593
2022-11-22T01:38:11.206Z,9.661678
2022-11-22T01:39:11.231Z,9.661543
2022-11-22T01:40:11.195Z,9.661457
2022-11-22T01:41:11.201Z,9.661503
2022-11-22T01:42:11.311Z,9.661493
2022-11-22T01:43:11.221Z,9.661443
2022-11-22T01:44:11.194Z,9.661493
2022-11-22T01:45:11.166Z,9.661486
2022-11-22T01:46:11.174Z,9.661491
2022-11-22T01:47:11.310Z,9.661488
2022-11-22T01:48:11.173Z,9.661472
2022-11-22T01:49:11.180Z,9.661465
2022-11-22T01:50:11.166Z,9.661481
2022-11-22T01:51:11.134Z,9.661484
2022-11-22T01:52:11.132Z,9.661449
2022-11-22T01:53:11.195Z,9.661490
2022-11-22T01:54:11.168Z,9.661469
2022-11-22T01:55:11.125Z,9.661415
2022-11-22T01:56:11.141Z,9.661506
2022-11-22T01:57:11.128Z,9.661454
2022-11-22T01:58:11.114Z,9.661471
2022-11-22T01:59:11.113Z,9.661515
2022-11-22T02:00:11.170Z,9.661538
2022-11-22T02:01:11.207Z,9.661575
2022-11-22T02:02:11.134Z,9.661540
2022-11-22T02:03:11.145Z,9.661550
2022-11-22T02:04:11.291Z,9.661464
2022-11-22T02:05:11.149Z,9.661426
2022-11-22T02:06:11.059Z,9.661406
2022-11-22T02:07:11.123Z,9.661438
2022-11-22T02:08:11.084Z,9.661514
2022-11-22T02:09:11.174Z,9.661476
2022-11-22T02:10:11.060Z,9.661417
2022-11-22T02:11:11.042Z,9.661430
2022-11-22T02:12:11.056Z,9.661377
2022-11-22T02:13:11.051Z,9.661435
2022-11-22T02:14:11.059Z,9.661276
2022-11-22T02:15:11.072Z,9.661437
2022-11-22T02:16:11.015Z,9.661447
2022-11-22T02:17:11.042Z,9.661457
2022-11-22T02:18:11.050Z,9.662169
2022-11-22T02:19:11.019Z,9.661678
2022-11-22T02:20:11.041Z,9.661605
2022-11-22T02:21:11.003Z,9.661479
2022-11-22T02:22:11.016Z,9.661165
2022-11-22T02:23:10.999Z,9.660994
2022-11-22T02:24:10.983Z,9.660741
2022-11-22T02:25:10.976Z,9.661074
2022-11-22T02:26:11.005Z,9.661218
2022-11-22T02:27:11.863Z,9.661393
2022-11-22T02:28:10.977Z,9.661501
2022-11-22T02:29:10.980Z,9.661533
2022-11-22T02:30:10.939Z,9.661521
2022-11-22T02:31:11.295Z,9.661528
2022-11-22T02:32:10.991Z,9.661326
2022-11-22T02:33:10.929Z,9.661509
2022-11-22T02:34:10.953Z,9.661515
2022-11-22T02:35:10.929Z,9.661573
2022-11-22T02:36:10.909Z,9.661345
2022-11-22T02:37:12.000Z,9.661556
2022-11-22T02:38:10.901Z,9.661643
2022-11-22T02:39:10.918Z,9.661437
2022-11-22T02:40:10.914Z,9.661714
2022-11-22T02:41:10.923Z,9.661660
2022-11-22T02:42:10.934Z,9.661704
2022-11-22T02:43:10.927Z,9.661675
2022-11-22T02:44:10.880Z,9.661670
2022-11-22T02:45:10.855Z,9.661935
2022-11-22T02:46:10.910Z,9.662254
2022-11-22T02:47:10.899Z,9.662166
2022-11-22T02:48:10.882Z,9.662396
2022-11-22T02:49:10.870Z,9.662519
2022-11-22T02:50:10.849Z,9.661830
2022-11-22T02:51:10.852Z,9.661862
2022-11-22T02:52:10.875Z,9.661772
2022-11-22T02:53:11.698Z,9.661626
2022-11-22T02:54:10.829Z,9.661638
2022-11-22T02:55:11.387Z,9.661721
2022-11-22T02:56:10.786Z,9.661694
2022-11-22T02:57:10.816Z,9.661526
2022-11-22T02:58:10.811Z,9.661639
2022-11-22T02:59:10.819Z,9.661631
2022-11-22T03:00:10.799Z,9.661581
2022-11-22T03:01:10.847Z,9.661522
2022-11-22T03:02:10.814Z,9.661613
2022-11-22T03:03:10.765Z,9.661584
2022-11-22T03:04:10.807Z,9.661652
2022-11-22T03:05:10.755Z,9.661626
2022-11-22T03:06:10.785Z,9.661592
2022-11-22T03:07:10.843Z,9.661696
2022-11-22T03:08:10.725Z,9.661700
2022-11-22T03:09:10.784Z,9.661592
2022-11-22T03:10:10.775Z,9.661559
2022-11-22T03:11:10.754Z,9.661534
2022-11-22T03:12:10.733Z,9.661516
2022-11-22T03:13:10.755Z,9.661394
2022-11-22T03:14:10.737Z,9.661527
2022-11-22T03:15:10.700Z,9.661689
2022-11-22T03:16:10.731Z,9.661610
2022-11-22T03:17:10.739Z,9.661508
2022-11-22T03:18:10.720Z,9.661633
2022-11-22T03:19:10.700Z,9.661540
2022-11-22T03:20:10.683Z,9.661519
2022-11-22T03:21:10.714Z,9.661672
2022-11-22T03:22:11.736Z,9.661773
2022-11-22T03:23:11.659Z,9.661736
2022-11-22T03:24:10.676Z,9.661646
2022-11-22T03:25:10.684Z,9.661489
2022-11-22T03:26:10.724Z,9.661409
2022-11-22T03:27:10.681Z,9.661498
2022-11-22T03:28:10.633Z,9.661674
2022-11-22T03:29:10.676Z,9.661675
2022-11-22T03:30:10.657Z,9.661651
2022-11-22T03:31:10.625Z,9.661572
2022-11-22T03:32:10.654Z,9.661704
2022-11-22T03:33:10.645Z,9.661628
2022-11-22T03:34:10.615Z,9.661512
2022-11-22T03:35:10.605Z,9.661476
2022-11-22T03:36:10.608Z,9.661537
2022-11-22T03:37:10.626Z,9.661599
2022-11-22T03:38:10.621Z,9.661679
2022-11-22T03:39:10.585Z,9.661676
2022-11-22T03:40:10.568Z,9.661549
2022-11-22T03:41:10.567Z,9.661435
2022-11-22T03:42:10.588Z,9.661357
2022-11-22T03:43:10.687Z,9.661429
2022-11-22T03:44:10.566Z,9.661548
2022-11-22T03:45:10.578Z,9.661478
2022-11-22T03:46:10.565Z,9.661386
2022-11-22T03:47:10.536Z,9.661629
2022-11-22T03:48:10.692Z,9.661554
2022-11-22T03:49:10.547Z,9.661620
2022-11-22T03:50:10.495Z,9.661617
2022-11-22T03:51:10.547Z,9.661625
2022-11-22T03:52:10.503Z,9.661595
2022-11-22T03:53:10.643Z,9.661532
2022-11-22T03:54:10.487Z,9.661652
2022-11-22T03:55:10.503Z,9.661590
2022-11-22T03:56:10.500Z,9.661521
2022-11-22T03:57:10.526Z,9.661488
2022-11-22T03:58:10.500Z,9.661630
2022-11-22T03:59:10.487Z,9.661755
2022-11-22T04:00:10.479Z,9.661895
2022-11-22T04:01:16.146Z,9.661719
2022-11-22T04:02:12.543Z,9.661617
2022-11-22T04:03:10.459Z,9.661518
2022-11-22T04:04:10.513Z,9.661400
2022-11-22T04:05:10.431Z,9.661467
2022-11-22T04:06:10.447Z,9.661490
2022-11-22T04:07:10.468Z,9.661526
2022-11-22T04:08:10.453Z,9.661569
2022-11-22T04:09:10.526Z,9.661504
2022-11-22T04:10:10.432Z,9.661530
2022-11-22T04:11:10.400Z,9.661642
2022-11-22T04:12:10.415Z,9.661672
2022-11-22T04:13:10.411Z,9.661580
2022-11-22T04:14:10.428Z,9.661676
2022-11-22T04:15:11.509Z,9.661657
2022-11-22T04:16:10.370Z,9.661505
2022-11-22T04:17:10.411Z,9.661577
2022-11-22T04:18:10.372Z,9.661576
2022-11-22T04:19:10.390Z,9.661527
2022-11-22T04:20:10.364Z,9.661534
2022-11-22T04:21:10.470Z,9.661344
2022-11-22T04:22:10.338Z,9.661547
2022-11-22T04:23:10.338Z,9.661269
2022-11-22T04:24:10.351Z,9.661446
2022-11-22T04:25:10.324Z,9.661487
2022-11-22T04:26:10.360Z,9.661301
2022-11-22T04:27:10.314Z,9.661298
2022-11-22T04:28:10.322Z,9.661409
2022-11-22T04:29:10.706Z,9.661682
2022-11-22T04:30:13.766Z,9.661337
2022-11-22T04:31:11.343Z,9.661311
2022-11-22T04:32:10.277Z,9.661095
2022-11-22T04:33:10.293Z,9.661388
2022-11-22T04:34:10.313Z,9.661652
2022-11-22T04:35:10.276Z,9.661495
2022-11-22T04:36:13.339Z,9.661533
2022-11-22T04:37:11.366Z,9.661488
2022-11-22T04:38:10.269Z,9.661326
2022-11-22T04:39:10.244Z,9.661381
2022-11-22T04:40:10.311Z,9.661680
2022-11-22T04:41:10.236Z,9.661454
2022-11-22T04:42:10.248Z,9.661491
2022-11-22T04:43:10.253Z,9.661478
2022-11-22T04:44:10.270Z,9.661718
2022-11-22T04:45:10.281Z,9.661792
2022-11-22T04:46:10.229Z,9.661643
2022-11-22T04:47:10.225Z,9.661764
2022-11-22T04:48:10.265Z,9.661757
2022-11-22T04:49:10.222Z,9.661927
2022-11-22T04:50:10.283Z,9.661695
2022-11-22T04:51:10.180Z,9.661782
2022-11-22T04:52:10.188Z,9.662310
2022-11-22T04:53:10.204Z,9.662337
2022-11-22T04:54:10.229Z,9.661686
2022-11-22T04:55:10.197Z,9.661454
2022-11-22T04:56:10.212Z,9.661451
2022-11-22T04:57:10.163Z,9.661454
2022-11-22T04:58:10.148Z,9.661588
2022-11-22T04:59:10.199Z,9.661653
2022-11-22T05:00:10.176Z,9.661536
2022-11-22T05:01:10.177Z,9.661488
2022-11-22T05:02:10.126Z,9.661475
2022-11-22T05:03:10.144Z,9.661477
2022-11-22T05:04:10.150Z,9.661564
2022-11-22T05:05:10.208Z,9.661683
2022-11-22T05:06:10.147Z,9.661618
2022-11-22T05:07:10.085Z,9.661561
2022-11-22T05:08:10.123Z,9.661572
2022-11-22T05:09:10.111Z,9.661528
2022-11-22T05:10:10.227Z,9.661505
2022-11-22T05:11:10.085Z,9.661622
2022-11-22T05:12:10.094Z,9.661771
2022-11-22T05:13:10.045Z,9.661602
2022-11-22T05:14:10.057Z,9.661745
2022-11-22T05:15:10.020Z,9.661680
2022-11-22T05:16:10.053Z,9.661681
2022-11-22T05:17:13.155Z,9.661760
2022-11-22T05:18:11.045Z,9.661474
2022-11-22T05:19:10.016Z,9.661618
2022-11-22T05:20:10.083Z,9.661520
2022-11-22T05:21:10.180Z,9.661695
2022-11-22T05:22:10.027Z,9.661660
2022-11-22T05:23:10.031Z,9.661619
2022-11-22T05:24:10.022Z,9.661617
2022-11-22T05:25:10.052Z,9.661616
2022-11-22T05:26:10.030Z,9.661602
2022-11-22T05:27:10.001Z,9.661628
2022-11-22T05:28:10.041Z,9.661535
2022-11-22T05:29:10.015Z,9.661542
2022-11-22T05:30:09.962Z,9.661551
2022-11-22T05:31:09.967Z,9.661469
2022-11-22T05:32:10.000Z,9.661432
2022-11-22T05:33:10.013Z,9.661390
2022-11-22T05:34:09.965Z,9.661532
2022-11-22T05:35:09.967Z,9.661623
2022-11-22T05:36:09.954Z,9.661557
2022-11-22T05:37:09.958Z,9.662038
2022-11-22T05:38:09.990Z,9.661794
2022-11-22T05:39:09.937Z,9.661593
2022-11-22T05:40:09.923Z,9.661827
2022-11-22T05:41:09.949Z,9.661560
2022-11-22T05:42:09.912Z,9.661662
2022-11-22T05:43:09.931Z,9.662028
2022-11-22T05:44:09.867Z,9.661686
2022-11-22T05:45:09.955Z,9.661640
2022-11-22T05:46:09.884Z,9.661477
2022-11-22T05:47:09.877Z,9.661758
2022-11-22T05:48:09.893Z,9.661601
2022-11-22T05:49:09.899Z,9.661567
2022-11-22T05:50:10.085Z,9.661482
2022-11-22T05:51:09.860Z,9.661343
2022-11-22T05:52:09.820Z,9.661448
2022-11-22T05:53:09.850Z,9.661570
2022-11-22T05:54:09.924Z,9.661481
2022-11-22T05:55:09.846Z,9.661392
2022-11-22T05:56:09.859Z,9.661532
2022-11-22T05:57:09.844Z,9.661406
2022-11-22T05:58:09.836Z,9.661370
2022-11-22T05:59:09.800Z,9.661541
2022-11-22T06:00:09.823Z,9.661588
2022-11-22T06:01:09.822Z,9.661512
2022-11-22T06:02:09.925Z,9.661438
2022-11-22T06:03:09.829Z,9.661473
2022-11-22T06:04:09.796Z,9.661519
2022-11-22T06:05:09.832Z,9.661402
2022-11-22T06:06:09.770Z,9.661394
2022-11-22T06:07:10.396Z,9.661500
2022-11-22T06:08:09.776Z,9.661533
2022-11-22T06:09:09.741Z,9.661522
2022-11-22T06:10:09.765Z,9.661553
2022-11-22T06:11:09.855Z,9.661521
2022-11-22T06:12:09.787Z,9.661515
2022-11-22T06:13:09.757Z,9.661493
2022-11-22T06:14:09.735Z,9.661486
2022-11-22T06:15:09.704Z,9.661535
2022-11-22T06:16:09.746Z,9.661394
2022-11-22T06:17:09.737Z,9.661465
2022-11-22T06:18:09.697Z,9.661436
2022-11-22T06:19:09.727Z,9.661533
2022-11-22T06:20:09.740Z,9.661559
2022-11-22T06:21:09.719Z,9.661609
2022-11-22T06:22:09.760Z,9.661622
2022-11-22T06:23:09.663Z,9.661708
2022-11-22T06:24:09.656Z,9.661655
2022-11-22T06:25:09.661Z,9.661650
2022-11-22T06:26:09.660Z,9.661525
2022-11-22T06:27:09.686Z,9.661711
2022-11-22T06:28:09.641Z,9.661655
2022-11-22T06:29:09.677Z,9.661487
2022-11-22T06:30:10.683Z,9.661475
2022-11-22T06:31:09.630Z,9.661466
2022-11-22T06:32:09.644Z,9.661462
2022-11-22T06:33:09.696Z,9.661648
2022-11-22T06:34:09.602Z,9.661656
2022-11-22T06:35:09.617Z,9.661619
2022-11-22T06:36:09.611Z,9.661652
2022-11-22T06:37:09.624Z,9.661572
2022-11-22T06:38:09.638Z,9.661589
2022-11-22T06:39:09.599Z,9.661572
2022-11-22T06:40:09.562Z,9.661609
2022-11-22T06:41:09.579Z,9.661521
2022-11-22T06:42:09.550Z,9.661514
2022-11-22T06:43:09.557Z,9.661589
2022-11-22T06:44:10.027Z,9.661641
2022-11-22T06:45:09.595Z,9.661655
2022-11-22T06:46:09.563Z,9.661565
2022-11-22T06:47:09.559Z,9.661458
2022-11-22T06:48:09.511Z,9.661608
2022-11-22T06:49:09.551Z,9.661557
2022-11-22T06:50:09.550Z,9.661622
2022-11-22T06:51:09.500Z,9.661552
2022-11-22T06:52:09.519Z,9.661504
2022-11-22T06:53:26.346Z,9.661572
2022-11-22T06:54:11.608Z,9.661540
2022-11-22T06:55:34.550Z,9.661542
2022-11-22T06:56:09.509Z,9.661537
2022-11-22T06:57:09.525Z,9.661518
2022-11-22T06:58:09.453Z,9.661534
2022-11-22T06:59:09.468Z,9.661519
2022-11-22T07:00:09.479Z,9.661503
2022-11-22T07:01:09.524Z,9.661627
2022-11-22T07:02:09.439Z,9.661783
2022-11-22T07:03:09.443Z,9.661644
2022-11-22T07:04:09.430Z,9.661571
2022-11-22T07:05:25.240Z,9.661510
2022-11-22T07:06:11.434Z,9.661524
2022-11-22T07:07:09.479Z,9.661720
2022-11-22T07:08:13.805Z,9.661650
2022-11-22T07:09:10.406Z,9.661544
2022-11-22T07:10:09.382Z,9.661478
2022-11-22T07:11:09.515Z,9.661510
2022-11-22T07:12:09.380Z,9.661608
2022-11-22T07:13:09.352Z,9.661485
2022-11-22T07:14:09.721Z,9.661560
2022-11-22T07:15:10.358Z,9.661625
2022-11-22T07:16:09.378Z,9.661661
2022-11-22T07:17:09.363Z,9.661785
2022-11-22T07:18:09.360Z,9.661679
2022-11-22T07:19:09.336Z,9.661630
2022-11-22T07:20:09.322Z,9.661560
2022-11-22T07:21:12.754Z,9.661670
2022-11-22T07:22:10.375Z,9.661840
2022-11-22T07:23:09.377Z,9.661897
2022-11-22T07:24:09.282Z,9.661752
2022-11-22T07:25:09.312Z,9.661690
2022-11-22T07:26:09.296Z,9.661672
2022-11-22T07:27:09.271Z,9.661765
2022-11-22T07:28:09.279Z,9.661928
2022-11-22T07:29:09.267Z,9.661754
2022-11-22T07:30:09.279Z,9.661787
2022-11-22T07:31:09.335Z,9.661766
2022-11-22T07:32:09.272Z,9.661597
2022-11-22T07:33:09.327Z,9.661589
2022-11-22T07:34:09.346Z,9.661581
2022-11-22T07:35:09.232Z,9.661580
2022-11-22T07:36:09.250Z,9.661793
2022-11-22T07:37:09.512Z,9.661690
2022-11-22T07:38:10.254Z,9.661640
2022-11-22T07:39:09.212Z,9.661633
2022-11-22T07:40:09.224Z,9.661655
2022-11-22T07:41:09.344Z,9.661637
2022-11-22T07:42:09.282Z,9.661691
2022-11-22T07:43:09.187Z,9.661633
2022-11-22T07:44:09.199Z,9.661419
2022-11-22T07:45:09.178Z,9.661458
2022-11-22T07:46:09.186Z,9.661545
2022-11-22T07:47:09.159Z,9.661521
2022-11-22T07:48:09.169Z,9.661546
2022-11-22T07:49:09.131Z,9.661490
2022-11-22T07:50:09.128Z,9.661669
2022-11-22T07:51:09.125Z,9.661439
2022-11-22T07:52:09.836Z,9.661597
2022-11-22T07:53:09.471Z,9.661565
2022-11-22T07:54:09.092Z,9.661556
2022-11-22T07:55:13.813Z,9.661564
2022-11-22T07:56:10.100Z,9.661683
2022-11-22T07:57:09.745Z,9.661608
2022-11-22T07:58:09.091Z,9.661409
2022-11-22T07:59:09.121Z,9.661467
2022-11-22T08:00:09.114Z,9.661252
2022-11-22T08:01:09.206Z,9.661271
2022-11-22T08:02:09.205Z,9.661193
2022-11-22T08:03:09.063Z,9.661101
2022-11-22T08:04:09.069Z,9.661216
2022-11-22T08:05:09.065Z,9.661373
2022-11-22T08:06:09.134Z,9.661549
2022-11-22T08:07:09.062Z,9.661546
2022-11-22T08:08:09.063Z,9.661530
2022-11-22T08:09:09.043Z,9.661461
2022-11-22T08:10:09.034Z,9.661536
2022-11-22T08:11:08.996Z,9.661613
2022-11-22T08:12:09.013Z,9.661569
2022-11-22T08:13:09.002Z,9.661650
2022-11-22T08:14:08.997Z,9.661638
2022-11-22T08:15:09.000Z,9.661611
2022-11-22T08:16:09.074Z,9.661641
2022-11-22T08:17:08.995Z,9.661701
2022-11-22T08:18:08.964Z,9.661763
2022-11-22T08:19:08.972Z,9.661675
2022-11-22T08:20:08.938Z,9.661594
2022-11-22T08:21:08.965Z,9.661613
2022-11-22T08:22:09.032Z,9.661498
2022-11-22T08:23:08.929Z,9.661559
2022-11-22T08:24:08.958Z,9.661696
2022-11-22T08:25:08.909Z,9.661582
2022-11-22T08:26:09.045Z,9.661583
2022-11-22T08:27:08.916Z,9.661566
2022-11-22T08:28:08.913Z,9.661578
2022-11-22T08:29:13.941Z,9.661674
2022-11-22T08:30:10.890Z,9.661713
2022-11-22T08:31:08.914Z,9.661725
2022-11-22T08:32:08.937Z,9.661779
2022-11-22T08:33:08.895Z,9.661637
2022-11-22T08:34:09.416Z,9.661698
2022-11-22T08:35:09.886Z,9.661690
2022-11-22T08:36:08.868Z,9.661607
2022-11-22T08:37:08.875Z,9.661660
2022-11-22T08:38:08.933Z,9.661670
2022-11-22T08:39:08.822Z,9.661630
2022-11-22T08:40:08.844Z,9.661623
2022-11-22T08:41:08.826Z,9.661599
2022-11-22T08:42:08.822Z,9.661757
2022-11-22T08:43:08.841Z,9.661596
2022-11-22T08:44:08.817Z,9.661696
2022-11-22T08:45:08.796Z,9.661666
2022-11-22T08:46:08.803Z,9.661655
2022-11-22T08:47:08.770Z,9.661677
2022-11-22T08:48:08.816Z,9.661600
2022-11-22T08:49:08.751Z,9.661523
2022-11-22T08:50:08.744Z,9.661528
2022-11-22T08:51:08.745Z,9.661572
2022-11-22T08:52:08.770Z,9.661591
2022-11-22T08:53:08.764Z,9.661674
2022-11-22T08:54:09.421Z,9.661642
2022-11-22T08:55:08.740Z,9.661632
2022-11-22T08:56:08.749Z,9.661614
2022-11-22T08:57:08.730Z,9.661606
2022-11-22T08:58:08.714Z,9.661633
2022-11-22T08:59:08.956Z,9.661612
2022-11-22T09:00:08.735Z,9.661570
2022-11-22T09:01:08.757Z,9.661601
2022-11-22T09:02:08.702Z,9.661572
2022-11-22T09:03:08.694Z,9.661580
2022-11-22T09:04:08.699Z,9.661611
2022-11-22T09:05:08.812Z,9.661572
2022-11-22T09:08:26.592Z,9.661658
2022-11-22T09:10:09.890Z,9.661472
2022-11-22T09:11:08.664Z,9.661525
2022-11-22T09:12:08.627Z,9.661628
2022-11-22T09:13:08.631Z,9.661652
2022-11-22T09:14:08.618Z,9.661537
2022-11-22T09:15:08.646Z,9.661621
2022-11-22T09:16:08.651Z,9.661626
2022-11-22T09:17:11.998Z,9.661640
2022-11-22T09:18:08.576Z,9.661693
2022-11-22T09:19:08.572Z,9.661731
2022-11-22T09:20:08.594Z,9.661866
2022-11-22T09:21:08.616Z,9.661800
2022-11-22T09:22:08.593Z,9.661860
2022-11-22T09:23:08.592Z,9.661932
2022-11-22T09:24:08.556Z,9.661811
2022-11-22T09:25:08.578Z,9.661857
2022-11-22T09:26:08.519Z,9.661815
2022-11-22T09:27:08.696Z,9.661732
2022-11-22T09:28:08.543Z,9.661706
2022-11-22T09:29:08.590Z,9.661864
2022-11-22T09:30:08.507Z,9.661760
2022-11-22T09:31:08.493Z,9.661725
2022-11-22T09:32:08.639Z,9.661736
2022-11-22T09:33:08.503Z,9.661596
2022-11-22T09:34:08.512Z,9.661076
2022-11-22T09:35:08.460Z,9.661371
2022-11-22T09:36:08.488Z,9.661541
2022-11-22T09:37:08.493Z,9.661524
2022-11-22T09:38:08.597Z,9.661443
2022-11-22T09:39:08.463Z,9.661239
2022-11-22T09:40:08.454Z,9.661403
2022-11-22T09:41:08.486Z,9.661559
2022-11-22T09:42:08.507Z,9.661592
2022-11-22T09:43:08.458Z,9.661327
2022-11-22T09:44:08.443Z,9.661738
2022-11-22T09:45:08.413Z,9.661945
2022-11-22T09:46:08.441Z,9.661524
2022-11-22T09:47:08.392Z,9.661410
2022-11-22T09:48:10.099Z,9.661212
2022-11-22T09:49:09.552Z,9.661530
2022-11-22T09:50:08.431Z,9.662015
2022-11-22T09:51:08.397Z,9.662302
2022-11-22T09:52:08.395Z,9.662620
2022-11-22T09:53:08.370Z,9.661652
2022-11-22T09:54:08.357Z,9.661237
2022-11-22T09:55:08.365Z,9.661463
2022-11-22T09:56:08.403Z,9.661519
2022-11-22T09:57:08.362Z,9.661622
2022-11-22T09:58:08.410Z,9.661664
2022-11-22T09:59:08.370Z,9.661866
2022-11-22T10:00:08.476Z,9.661940
2022-11-22T10:01:08.417Z,9.662158
2022-11-22T10:02:18.371Z,9.661513
2022-11-22T10:03:08.350Z,9.661490
2022-11-22T10:04:08.313Z,9.661441
2022-11-22T10:05:08.329Z,9.661809
2022-11-22T10:06:08.400Z,9.661441
2022-11-22T10:07:08.349Z,9.661481
2022-11-22T10:08:08.293Z,9.661700
2022-11-22T10:09:08.255Z,9.661388
2022-11-22T10:10:08.281Z,9.661801
2022-11-22T10:11:08.302Z,9.661383
2022-11-22T10:12:08.275Z,9.661255
2022-11-22T10:13:08.283Z,9.661687
2022-11-22T10:14:08.451Z,9.661795
2022-11-22T10:15:08.227Z,9.661629
2022-11-22T10:16:08.233Z,9.661938
2022-11-22T10:17:08.352Z,9.661865
2022-11-22T10:18:09.208Z,9.661873
2022-11-22T10:19:08.221Z,9.662383
2022-11-22T10:20:08.276Z,9.661828
2022-11-22T10:21:08.262Z,9.662034
2022-11-22T10:22:08.252Z,9.661484
2022-11-22T10:23:08.240Z,9.661944
2022-11-22T10:24:08.217Z,9.661707
2022-11-22T10:25:08.277Z,9.661940
2022-11-22T10:26:08.191Z,9.661757
2022-11-22T10:27:08.218Z,9.661659
2022-11-22T10:28:08.178Z,9.661546
2022-11-22T10:29:08.166Z,9.661803
2022-11-22T10:30:08.232Z,9.661687
2022-11-22T10:31:08.153Z,9.661619
2022-11-22T10:32:08.159Z,9.661743
2022-11-22T10:33:08.208Z,9.661625
2022-11-22T10:34:08.143Z,9.661707
2022-11-22T10:35:08.139Z,9.661707
2022-11-22T10:36:08.136Z,9.661644
2022-11-22T10:37:08.135Z,9.661696
2022-11-22T10:38:08.142Z,9.661669
2022-11-22T10:39:08.147Z,9.661647
2022-11-22T10:40:08.103Z,9.661682
2022-11-22T10:41:08.104Z,9.661669
2022-11-22T10:42:08.102Z,9.661510
2022-11-22T10:43:08.068Z,9.661472
2022-11-22T10:44:08.178Z,9.661508
2022-11-22T10:45:08.047Z,9.661597
2022-11-22T10:46:08.150Z,9.661643
2022-11-22T10:47:08.101Z,9.661788
2022-11-22T10:48:08.027Z,9.661755
2022-11-22T10:49:08.035Z,9.661571
2022-11-22T10:50:08.125Z,9.661561
2022-11-22T10:51:08.029Z,9.661581
2022-11-22T10:52:08.044Z,9.661548
2022-11-22T10:53:08.005Z,9.661074
2022-11-22T10:54:07.981Z,9.661012
2022-11-22T10:55:08.005Z,9.661489
2022-11-22T10:56:07.992Z,9.661668
2022-11-22T10:57:07.971Z,9.661773
2022-11-22T10:58:08.010Z,9.661935
2022-11-22T10:59:07.967Z,9.661990
2022-11-22T11:00:07.977Z,9.661931
2022-11-22T11:01:08.041Z,9.662059
2022-11-22T11:02:08.056Z,9.661972
2022-11-22T11:03:07.944Z,9.662135
2022-11-22T11:04:07.928Z,9.662109
2022-11-22T11:05:07.964Z,9.662086
2022-11-22T11:06:22.653Z,9.662041
2022-11-22T11:07:12.444Z,9.661969
2022-11-22T11:08:35.395Z,9.661796
2022-11-22T11:10:09.181Z,9.662178
2022-11-22T11:10:12.111Z,9.662391
2022-11-22T11:11:08.931Z,9.662558
2022-11-22T11:12:07.882Z,9.662339
2022-11-22T11:13:07.905Z,9.662328
2022-11-22T11:14:07.897Z,9.662123
2022-11-22T11:15:07.873Z,9.661642
2022-11-22T11:16:07.857Z,9.661654
2022-11-22T11:17:07.894Z,9.661680
2022-11-22T11:18:07.935Z,9.661682
2022-11-22T11:19:07.834Z,9.661716
2022-11-22T11:20:07.844Z,9.661975
2022-11-22T11:21:07.864Z,9.662083
2022-11-22T11:22:07.824Z,9.661899
2022-11-22T11:23:14.815Z,9.662003
2022-11-22T11:24:08.835Z,9.662028
2022-11-22T11:25:07.872Z,9.661728
2022-11-22T11:26:07.770Z,9.661897
2022-11-22T11:27:07.813Z,9.661667
2022-11-22T11:28:07.798Z,9.661560
2022-11-22T11:29:07.794Z,9.661514
2022-11-22T11:30:07.793Z,9.661541
2022-11-22T11:31:07.787Z,9.661580
2022-11-22T11:32:07.761Z,9.661612
2022-11-22T11:33:07.897Z,9.661525
2022-11-22T11:34:08.846Z,9.661518
2022-11-22T11:35:07.731Z,9.661377
2022-11-22T11:36:07.777Z,9.661315
2022-11-22T11:37:07.735Z,9.661257
2022-11-22T11:38:07.709Z,9.661041
2022-11-22T11:39:07.764Z,9.660875
2022-11-22T11:40:07.727Z,9.660749
2022-11-22T11:41:07.695Z,9.660913
2022-11-22T11:42:07.716Z,9.660986
2022-11-22T11:43:07.710Z,9.661155
2022-11-22T11:44:07.707Z,9.661375
2022-11-22T11:45:07.737Z,9.661200
2022-11-22T11:46:07.807Z,9.660660
2022-11-22T11:47:07.714Z,9.660593